Time;durP1;ratioP1;P1;durP2;ratioP2;P2;SDS_P1;SDS_P2;PMS_P1;PMS_P2;Temp;Humidity;BMP_temperature;BMP_pressure;BME280_temperature;BME280_humidity;BME280_pressure;Samples;Min_cycle;Max_cycle;Signal;HPM_P1;HPM_P2
2021/05/27 00:02:01;;;;;;;1.30;0.80;;;12.80;99.90;;;;;;5070947;28;20232;-53
2021/05/27 00:04:27;;;;;;;0.90;0.80;;;12.80;99.90;;;;;;5071253;28;20212;-52
2021/05/27 00:06:53;;;;;;;2.53;1.00;;;12.80;99.90;;;;;;5071286;28;20208;-52
2021/05/27 00:09:19;;;;;;;1.40;1.07;;;12.80;99.90;;;;;;5070802;28;20204;-53
2021/05/27 00:11:45;;;;;;;1.40;0.80;;;12.80;99.90;;;;;;5070993;28;20228;-53
2021/05/27 00:14:12;;;;;;;0.80;0.80;;;12.80;99.90;;;;;;5070627;28;20228;-53
2021/05/27 00:16:38;;;;;;;0.70;0.70;;;12.90;99.90;;;;;;5070528;28;20209;-53
2021/05/27 00:19:05;;;;;;;1.67;0.80;;;12.90;99.90;;;;;;5071913;28;20673;-54
2021/05/27 00:21:31;;;;;;;1.67;1.10;;;12.90;99.90;;;;;;5075014;28;20209;-53
2021/05/27 00:23:57;;;;;;;1.70;1.00;;;12.90;99.90;;;;;;5074843;28;20255;-54
2021/05/27 00:26:23;;;;;;;1.23;1.00;;;12.80;99.90;;;;;;5074757;28;20240;-54
2021/05/27 00:28:49;;;;;;;1.53;1.00;;;12.80;99.90;;;;;;5074517;28;20205;-54
2021/05/27 00:31:16;;;;;;;2.93;1.80;;;12.80;99.90;;;;;;5074476;28;20204;-54
2021/05/27 00:33:43;;;;;;;3.07;1.37;;;12.80;99.90;;;;;;5074368;28;20228;-53
2021/05/27 00:36:09;;;;;;;2.13;1.03;;;12.80;99.90;;;;;;5074533;28;20200;-55
2021/05/27 00:38:36;;;;;;;1.00;0.87;;;12.80;99.90;;;;;;5074241;28;20211;-53
2021/05/27 00:41:02;;;;;;;3.03;1.23;;;12.80;99.90;;;;;;5074189;28;20208;-53
2021/05/27 00:43:28;;;;;;;2.97;1.03;;;12.80;99.90;;;;;;5073905;28;20244;-53
2021/05/27 00:45:54;;;;;;;1.80;1.10;;;12.70;99.90;;;;;;5074024;28;20204;-52
2021/05/27 00:51:06;;;;;;;2.00;0.90;;;12.80;99.90;;;;;;5074167;28;20223;-51
2021/05/27 00:53:33;;;;;;;2.53;0.83;;;12.80;99.90;;;;;;5074090;28;20228;-53
2021/05/27 00:55:59;;;;;;;1.00;0.70;;;12.80;99.90;;;;;;5074064;28;20201;-54
2021/05/27 00:58:27;;;;;;;1.40;1.00;;;12.80;99.90;;;;;;5073936;28;20665;-53
2021/05/27 01:00:54;;;;;;;2.20;1.07;;;12.80;99.90;;;;;;5074321;28;20207;-53
2021/05/27 01:03:21;;;;;;;1.43;0.90;;;12.80;99.90;;;;;;5074048;28;20601;-53
2021/05/27 01:05:47;;;;;;;2.83;0.80;;;12.90;99.90;;;;;;5073808;28;20551;-53
2021/05/27 01:08:14;;;;;;;1.40;0.90;;;12.90;99.90;;;;;;5074091;28;20205;-54
2021/05/27 01:10:40;;;;;;;1.20;1.10;;;12.80;99.90;;;;;;5074058;28;20204;-53
2021/05/27 01:13:06;;;;;;;0.80;0.80;;;12.80;99.90;;;;;;5073988;28;20703;-53
2021/05/27 01:15:34;;;;;;;1.03;0.77;;;12.80;99.90;;;;;;5074030;28;20228;-53
2021/05/27 01:18:10;;;;;;;1.27;0.90;;;12.70;99.90;;;;;;5073758;28;20687;-53
2021/05/27 01:20:38;;;;;;;1.57;0.90;;;12.70;99.90;;;;;;5074049;28;20208;-53
2021/05/27 01:23:05;;;;;;;2.20;0.83;;;12.70;99.90;;;;;;5073911;28;20248;-53
2021/05/27 01:25:31;;;;;;;1.30;0.90;;;12.70;99.90;;;;;;5074182;28;20201;-53
2021/05/27 01:27:58;;;;;;;1.97;0.90;;;12.70;99.90;;;;;;5074268;28;20205;-53
2021/05/27 01:30:24;;;;;;;0.87;0.70;;;12.80;99.90;;;;;;5073037;28;20201;-54
2021/05/27 01:32:51;;;;;;;2.20;1.00;;;12.80;99.90;;;;;;5073729;28;20228;-52
2021/05/27 01:35:19;;;;;;;4.37;1.10;;;12.80;99.90;;;;;;5073276;28;20644;-53
2021/05/27 01:37:46;;;;;;;1.00;0.63;;;12.80;99.90;;;;;;5073243;28;20554;-53
2021/05/27 01:40:16;;;;;;;1.77;0.90;;;12.80;99.90;;;;;;5073673;28;20205;-53
2021/05/27 01:42:42;;;;;;;3.67;0.97;;;12.80;99.90;;;;;;5073417;28;20239;-53
2021/05/27 01:45:10;;;;;;;1.13;0.80;;;12.90;99.90;;;;;;5073412;28;20196;-53
2021/05/27 01:47:36;;;;;;;1.00;0.80;;;12.90;99.90;;;;;;5073340;28;20216;-54
2021/05/27 01:50:03;;;;;;;2.13;1.10;;;13.00;99.90;;;;;;5073206;28;20234;-53
2021/05/27 01:52:29;;;;;;;2.63;0.93;;;12.90;99.90;;;;;;5073154;28;20614;-53
2021/05/27 01:54:55;;;;;;;3.23;1.10;;;13.00;99.90;;;;;;5073134;28;20221;-53
2021/05/27 01:57:22;;;;;;;1.77;1.10;;;12.90;99.90;;;;;;5073390;28;20283;-53
2021/05/27 01:59:49;;;;;;;2.47;1.40;;;12.90;99.90;;;;;;5073224;28;20209;-54
2021/05/27 02:02:15;;;;;;;2.63;1.03;;;12.90;99.90;;;;;;5073455;28;20220;-53
2021/05/27 02:04:41;;;;;;;1.63;1.00;;;13.00;99.90;;;;;;5073088;28;20677;-54
2021/05/27 02:07:11;;;;;;;1.93;0.90;;;13.00;99.90;;;;;;5073686;28;20205;-54
2021/05/27 02:09:37;;;;;;;1.43;1.00;;;13.00;99.90;;;;;;5073029;28;20450;-53
2021/05/27 02:12:04;;;;;;;1.90;1.23;;;13.00;99.90;;;;;;5073143;28;20225;-54
2021/05/27 02:14:32;;;;;;;1.47;0.90;;;13.00;99.90;;;;;;5073065;28;20274;-54
2021/05/27 02:16:58;;;;;;;3.00;0.80;;;13.00;99.90;;;;;;5073000;28;20688;-54
2021/05/27 02:19:24;;;;;;;1.80;0.93;;;13.00;99.90;;;;;;5072803;28;20577;-54
2021/05/27 02:21:51;;;;;;;1.47;0.73;;;13.00;99.90;;;;;;5073383;28;20286;-53
2021/05/27 02:24:18;;;;;;;2.67;1.10;;;13.00;99.90;;;;;;5072805;28;20201;-53
2021/05/27 02:26:44;;;;;;;1.57;0.90;;;13.00;99.90;;;;;;5072643;28;20204;-53
2021/05/27 02:29:10;;;;;;;2.87;1.10;;;13.10;99.90;;;;;;5072317;28;20243;-53
2021/05/27 02:31:38;;;;;;;1.63;1.00;;;13.00;99.90;;;;;;5072970;28;20266;-54
2021/05/27 02:34:04;;;;;;;2.90;1.23;;;13.00;99.90;;;;;;5072370;28;20216;-54
2021/05/27 02:36:31;;;;;;;0.97;0.90;;;12.90;99.90;;;;;;5072608;28;20208;-53
2021/05/27 02:38:57;;;;;;;1.43;1.03;;;12.90;99.90;;;;;;5072756;28;20208;-54
2021/05/27 02:41:24;;;;;;;1.87;1.03;;;12.90;99.90;;;;;;5072121;28;20737;-54
2021/05/27 02:43:50;;;;;;;1.63;1.17;;;12.90;99.90;;;;;;5072016;28;20213;-53
2021/05/27 02:46:17;;;;;;;1.07;0.97;;;12.90;99.90;;;;;;5071989;28;20220;-53
2021/05/27 02:48:44;;;;;;;2.10;0.90;;;12.80;99.90;;;;;;5071775;28;20235;-53
2021/05/27 02:51:11;;;;;;;1.97;1.00;;;12.70;99.90;;;;;;5071760;28;20742;-53
2021/05/27 02:53:37;;;;;;;2.40;0.70;;;12.70;99.90;;;;;;5072051;28;20225;-53
2021/05/27 02:56:03;;;;;;;2.53;0.87;;;12.60;99.90;;;;;;5072180;28;20258;-53
2021/05/27 02:58:30;;;;;;;2.20;1.10;;;12.50;99.90;;;;;;5071999;28;20204;-53
2021/05/27 03:00:56;;;;;;;1.43;1.07;;;12.30;99.90;;;;;;5072073;28;20211;-53
2021/05/27 03:03:22;;;;;;;2.10;1.50;;;12.30;99.90;;;;;;5072104;28;20225;-53
2021/05/27 03:05:50;;;;;;;1.70;0.97;;;12.20;99.90;;;;;;5072089;28;20211;-53
2021/05/27 03:08:17;;;;;;;1.87;1.17;;;12.10;99.90;;;;;;5071867;28;20211;-54
2021/05/27 03:10:43;;;;;;;2.10;1.17;;;12.00;99.90;;;;;;5072037;28;20212;-53
2021/05/27 03:13:10;;;;;;;1.87;1.23;;;11.90;99.90;;;;;;5071872;28;20731;-54
2021/05/27 03:15:37;;;;;;;2.30;1.33;;;11.90;99.90;;;;;;5071445;28;20229;-53
2021/05/27 03:18:05;;;;;;;2.67;1.83;;;11.90;99.90;;;;;;5071419;28;20220;-54
2021/05/27 03:20:32;;;;;;;1.43;1.20;;;11.80;99.90;;;;;;5071484;28;20291;-54
2021/05/27 03:22:59;;;;;;;1.70;1.30;;;11.70;99.90;;;;;;5071355;28;20225;-54
2021/05/27 03:25:25;;;;;;;2.00;1.20;;;11.60;99.90;;;;;;5071204;28;20693;-53
2021/05/27 03:27:51;;;;;;;3.10;1.87;;;11.50;99.90;;;;;;5071565;28;20216;-53
2021/05/27 03:30:18;;;;;;;2.17;1.40;;;11.40;99.90;;;;;;5071566;28;20205;-53
2021/05/27 03:32:45;;;;;;;3.13;1.70;;;11.30;99.90;;;;;;5071010;28;20283;-53
2021/05/27 03:35:12;;;;;;;2.50;1.90;;;11.20;99.90;;;;;;5071106;28;20229;-53
2021/05/27 03:37:39;;;;;;;2.60;1.50;;;11.10;99.90;;;;;;5071061;28;20204;-54
2021/05/27 03:40:12;;;;;;;4.13;2.13;;;11.00;99.90;;;;;;5071091;28;20208;-53
2021/05/27 03:42:39;;;;;;;2.63;1.30;;;11.00;99.90;;;;;;5071061;28;20232;-54
2021/05/27 03:45:07;;;;;;;3.33;2.37;;;10.90;99.90;;;;;;5070991;28;20254;-53
2021/05/27 03:47:33;;;;;;;8.53;5.97;;;10.80;99.90;;;;;;5071534;28;20201;-53
2021/05/27 03:49:59;;;;;;;3.87;2.53;;;10.80;99.90;;;;;;5071199;28;20621;-53
2021/05/27 03:52:25;;;;;;;3.90;2.60;;;10.80;99.90;;;;;;5071226;28;20221;-53
2021/05/27 03:54:52;;;;;;;3.17;2.63;;;10.80;99.90;;;;;;5070428;28;20257;-54
2021/05/27 03:57:19;;;;;;;4.57;2.33;;;10.80;99.90;;;;;;5070898;28;20593;-53
2021/05/27 04:02:29;;;;;;;3.70;1.87;;;10.70;99.90;;;;;;5070959;28;20273;-54
2021/05/27 04:07:40;;;;;;;3.07;1.80;;;10.80;99.90;;;;;;5071533;28;20204;-54
2021/05/27 04:10:09;;;;;;;2.43;1.70;;;10.80;99.90;;;;;;5071859;28;20677;-53
2021/05/27 04:12:46;;;;;;;5.70;3.20;;;10.80;99.90;;;;;;5071087;28;20232;-53
2021/05/27 04:15:24;;;;;;;3.00;1.87;;;10.80;99.90;;;;;;5071303;28;20253;-54
2021/05/27 04:17:55;;;;;;;5.87;3.53;;;10.90;99.90;;;;;;5071079;28;20251;-53
2021/05/27 04:20:22;;;;;;;2.30;1.60;;;10.90;99.90;;;;;;5071256;28;20216;-53
2021/05/27 04:22:49;;;;;;;5.80;3.13;;;10.90;99.90;;;;;;5071183;28;20236;-53
2021/05/27 04:25:16;;;;;;;1.80;1.40;;;11.00;99.90;;;;;;5071219;28;20205;-53
2021/05/27 04:27:44;;;;;;;4.57;2.90;;;11.00;99.90;;;;;;5071260;28;20212;-53
2021/05/27 04:30:15;;;;;;;3.03;2.00;;;11.10;99.90;;;;;;5071196;28;20266;-54
2021/05/27 04:32:57;;;;;;;3.40;1.77;;;11.10;99.90;;;;;;5070968;28;20225;-54
2021/05/27 04:35:35;;;;;;;4.20;2.10;;;11.20;99.90;;;;;;5070575;28;20292;-53
2021/05/27 04:38:04;;;;;;;3.47;1.53;;;11.30;99.90;;;;;;5070622;28;20212;-54
2021/05/27 04:40:31;;;;;;;7.10;4.77;;;11.30;99.90;;;;;;5070520;28;20201;-53
2021/05/27 04:42:58;;;;;;;5.53;1.80;;;11.40;99.90;;;;;;5070205;28;20743;-53
2021/05/27 04:45:24;;;;;;;2.23;1.87;;;11.40;99.90;;;;;;5070362;28;20696;-53
2021/05/27 04:47:51;;;;;;;3.00;1.73;;;11.50;99.90;;;;;;5070963;28;20216;-53
2021/05/27 04:50:17;;;;;;;3.33;1.80;;;11.50;99.90;;;;;;5070669;28;20209;-54
2021/05/27 04:52:44;;;;;;;4.17;1.60;;;11.70;99.90;;;;;;5070424;28;20711;-53
2021/05/27 04:55:12;;;;;;;3.87;1.37;;;11.60;99.90;;;;;;5070259;28;20302;-53
2021/05/27 04:57:39;;;;;;;3.00;1.40;;;11.70;99.90;;;;;;5070432;28;20588;-53
2021/05/27 05:00:10;;;;;;;4.27;1.63;;;11.70;99.90;;;;;;5070204;28;20201;-53
2021/05/27 05:02:36;;;;;;;2.10;1.47;;;12.00;99.90;;;;;;5070323;28;20279;-53
2021/05/27 05:05:06;;;;;;;2.10;1.80;;;12.20;99.90;;;;;;5070209;28;20197;-53
2021/05/27 05:07:32;;;;;;;2.77;1.70;;;12.10;99.90;;;;;;5073808;28;20258;-53
2021/05/27 05:09:58;;;;;;;4.03;1.57;;;12.10;99.90;;;;;;5073806;28;20274;-54
2021/05/27 05:12:25;;;;;;;2.60;1.60;;;11.80;99.90;;;;;;5073707;28;20278;-54
2021/05/27 05:14:51;;;;;;;2.43;1.80;;;11.50;99.90;;;;;;5073814;28;20232;-54
2021/05/27 05:17:18;;;;;;;2.33;1.67;;;11.40;99.90;;;;;;5073977;28;20213;-54
2021/05/27 05:19:44;;;;;;;4.23;2.00;;;11.20;99.90;;;;;;5074016;28;20255;-53
2021/05/27 05:22:10;;;;;;;3.53;1.83;;;11.30;99.90;;;;;;5073901;28;20225;-53
2021/05/27 05:24:37;;;;;;;2.37;1.60;;;11.40;99.90;;;;;;5073957;28;20242;-53
2021/05/27 05:27:04;;;;;;;3.93;1.70;;;11.50;99.90;;;;;;5073532;28;20207;-53
2021/05/27 05:29:30;;;;;;;2.40;1.73;;;11.90;99.90;;;;;;5073220;28;20207;-53
2021/05/27 05:31:56;;;;;;;2.73;1.80;;;12.20;99.90;;;;;;5073629;28;20630;-53
2021/05/27 05:34:23;;;;;;;3.07;1.80;;;12.50;99.90;;;;;;5073217;28;20266;-54
2021/05/27 05:36:50;;;;;;;2.77;1.77;;;12.70;99.90;;;;;;5073376;28;20215;-53
2021/05/27 05:39:16;;;;;;;2.40;1.70;;;12.90;99.90;;;;;;5073222;28;20230;-53
2021/05/27 05:41:45;;;;;;;2.17;1.70;;;12.90;99.90;;;;;;5073199;28;20224;-55
2021/05/27 05:44:11;;;;;;;3.40;1.50;;;13.10;99.90;;;;;;5073161;28;20212;-54
2021/05/27 05:46:37;;;;;;;7.80;4.40;;;13.20;99.90;;;;;;5073140;28;20205;-54
2021/05/27 05:49:04;;;;;;;4.00;2.50;;;13.40;99.90;;;;;;5072832;28;20207;-54
2021/05/27 05:51:31;;;;;;;2.37;1.40;;;13.50;99.90;;;;;;5072806;28;20212;-54
2021/05/27 05:53:57;;;;;;;1.83;1.40;;;13.70;99.90;;;;;;5072576;28;20209;-54
2021/05/27 05:56:23;;;;;;;3.23;1.80;;;14.00;99.90;;;;;;5073169;28;20205;-54
2021/05/27 05:58:49;;;;;;;1.67;1.47;;;14.30;99.90;;;;;;5072746;28;20561;-56
2021/05/27 06:01:15;;;;;;;1.87;1.67;;;14.70;99.90;;;;;;5072967;28;20204;-54
2021/05/27 06:03:41;;;;;;;3.90;1.70;;;15.10;99.90;;;;;;5072591;28;20708;-54
2021/05/27 06:06:11;;;;;;;2.53;1.73;;;15.40;99.90;;;;;;5072673;28;20213;-55
2021/05/27 06:08:38;;;;;;;2.93;1.43;;;16.40;99.90;;;;;;5072552;28;20665;-55
2021/05/27 06:11:05;;;;;;;2.43;1.50;;;18.30;97.90;;;;;;5072602;28;20213;-55
2021/05/27 06:13:31;;;;;;;4.55;1.60;;;20.20;94.20;;;;;;5072591;28;20224;-54
2021/05/27 06:15:57;;;;;;;2.35;1.50;;;22.50;90.50;;;;;;5072597;28;20225;-55
2021/05/27 06:18:24;;;;;;;1.83;1.40;;;24.50;78.90;;;;;;5072420;28;20258;-55
2021/05/27 06:20:50;;;;;;;2.05;1.30;;;26.30;69.60;;;;;;5072668;28;20263;-55
2021/05/27 06:23:17;;;;;;;2.50;1.30;;;27.80;60.80;;;;;;5072326;28;20236;-55
2021/05/27 06:25:44;;;;;;;2.28;1.20;;;28.60;56.40;;;;;;5072169;28;20201;-55
2021/05/27 06:28:10;;;;;;;1.70;0.77;;;29.40;56.70;;;;;;5072384;28;20205;-55
2021/05/27 06:30:36;;;;;;;3.65;1.45;;;30.50;52.30;;;;;;5072261;28;20208;-55
2021/05/27 06:33:03;;;;;;;2.28;1.20;;;31.60;49.30;;;;;;5072107;28;20224;-55
2021/05/27 06:35:30;;;;;;;2.95;1.40;;;31.80;48.60;;;;;;5071782;28;20221;-55
2021/05/27 06:37:56;;;;;;;2.55;1.10;;;32.20;46.80;;;;;;5072677;28;20208;-55
2021/05/27 06:40:24;;;;;;;3.63;1.13;;;32.40;45.70;;;;;;5072039;28;20205;-55
2021/05/27 06:42:52;;;;;;;2.00;1.23;;;32.00;46.20;;;;;;5071700;28;20263;-55
2021/05/27 06:45:20;;;;;;;3.55;1.63;;;32.00;45.70;;;;;;5071713;28;20205;-55
2021/05/27 06:47:49;;;;;;;4.30;1.10;;;31.90;44.50;;;;;;5071630;28;20208;-55
2021/05/27 06:50:16;;;;;;;3.80;1.50;;;32.00;45.00;;;;;;5071785;28;20259;-56
2021/05/27 06:52:43;;;;;;;1.48;1.17;;;32.20;44.40;;;;;;5071922;28;20231;-55
2021/05/27 06:55:11;;;;;;;5.13;1.45;;;30.90;45.00;;;;;;5071567;28;20256;-55
2021/05/27 06:57:37;;;;;;;1.45;0.90;;;29.00;47.50;;;;;;5071710;28;20209;-55
2021/05/27 07:00:05;;;;;;;3.97;1.30;;;28.20;49.10;;;;;;5071714;28;20652;-55
2021/05/27 07:02:32;;;;;;;2.88;1.20;;;27.90;49.10;;;;;;5071475;28;20236;-55
2021/05/27 07:04:58;;;;;;;2.25;1.40;;;27.20;50.50;;;;;;5071396;28;20209;-55
2021/05/27 07:07:24;;;;;;;2.70;1.13;;;27.30;50.80;;;;;;5071490;28;20208;-55
2021/05/27 07:09:50;;;;;;;3.05;1.48;;;27.30;49.90;;;;;;5071450;28;20262;-55
2021/05/27 07:12:18;;;;;;;2.38;1.50;;;27.50;50.40;;;;;;5071081;28;20236;-56
2021/05/27 07:14:45;;;;;;;3.03;1.40;;;27.70;49.60;;;;;;5071171;28;20224;-56
2021/05/27 07:17:14;;;;;;;3.72;1.20;;;27.80;50.10;;;;;;5071371;28;20575;-55
2021/05/27 07:19:40;;;;;;;2.20;1.02;;;28.40;49.30;;;;;;5071349;28;20640;-56
2021/05/27 07:22:06;;;;;;;1.75;1.40;;;29.50;47.60;;;;;;5071315;28;20286;-56
2021/05/27 07:24:33;;;;;;;2.05;1.05;;;29.50;45.90;;;;;;5070873;28;20669;-56
2021/05/27 07:26:59;;;;;;;4.07;1.00;;;30.40;44.50;;;;;;5071045;28;20205;-55
2021/05/27 07:29:25;;;;;;;3.35;0.77;;;31.50;42.90;;;;;;5070264;28;20232;-56
2021/05/27 07:31:51;;;;;;;3.58;0.90;;;33.00;40.70;;;;;;5071004;28;20730;-56
2021/05/27 07:34:18;;;;;;;1.83;1.05;;;33.50;40.20;;;;;;5071060;28;20278;-56
2021/05/27 07:36:44;;;;;;;1.65;0.98;;;33.30;39.90;;;;;;5071424;28;20205;-56
2021/05/27 07:39:11;;;;;;;1.98;0.77;;;32.90;40.40;;;;;;5071443;28;20205;-56
2021/05/27 07:41:37;;;;;;;3.47;1.20;;;33.20;39.80;;;;;;5071285;28;20228;-56
2021/05/27 07:44:03;;;;;;;2.95;1.25;;;33.50;39.80;;;;;;5071060;28;20216;-55
2021/05/27 07:46:30;;;;;;;2.35;1.02;;;34.00;38.90;;;;;;5070884;28;20259;-56
2021/05/27 07:48:56;;;;;;;2.10;1.10;;;34.80;38.30;;;;;;5070889;28;20684;-56
2021/05/27 07:51:23;;;;;;;3.08;1.13;;;34.80;36.50;;;;;;5070892;28;20208;-56
2021/05/27 07:53:49;;;;;;;2.05;1.17;;;34.90;37.30;;;;;;5070789;28;20258;-56
2021/05/27 07:56:15;;;;;;;2.63;1.08;;;35.50;35.80;;;;;;5071040;28;20282;-56
2021/05/27 07:58:42;;;;;;;2.65;1.05;;;35.00;35.20;;;;;;5070664;28;20205;-57
2021/05/27 08:01:08;;;;;;;3.03;1.10;;;33.20;37.00;;;;;;5071045;28;20212;-56
2021/05/27 08:03:34;;;;;;;2.38;1.30;;;31.50;38.30;;;;;;5070690;28;20575;-58
2021/05/27 08:06:00;;;;;;;3.90;1.30;;;30.20;40.50;;;;;;5070832;28;20201;-59
2021/05/27 08:08:27;;;;;;;3.42;1.40;;;30.70;40.40;;;;;;5070665;28;20205;-58
2021/05/27 08:10:53;;;;;;;3.15;1.05;;;31.40;39.00;;;;;;5070783;28;20491;-58
2021/05/27 08:13:20;;;;;;;2.78;1.05;;;31.00;39.30;;;;;;5070994;28;20712;-58
2021/05/27 08:15:46;;;;;;;1.38;0.88;;;30.30;38.60;;;;;;5070486;28;20228;-57
2021/05/27 08:18:12;;;;;;;1.15;0.82;;;30.40;39.30;;;;;;5070478;28;20295;-58
2021/05/27 08:20:38;;;;;;;3.47;1.17;;;31.40;39.10;;;;;;5070737;28;20205;-56
2021/05/27 08:23:05;;;;;;;4.28;1.30;;;32.10;38.30;;;;;;5070610;28;20229;-58
2021/05/27 08:25:32;;;;;;;2.95;1.10;;;31.60;38.00;;;;;;5070433;28;20231;-58
2021/05/27 08:27:58;;;;;;;2.92;1.30;;;30.80;38.60;;;;;;5070579;28;20204;-56
2021/05/27 08:30:25;;;;;;;2.97;1.52;;;31.30;38.40;;;;;;5070625;28;20212;-56
2021/05/27 08:32:52;;;;;;;2.08;1.35;;;32.30;37.30;;;;;;5070911;28;20387;-56
2021/05/27 08:35:18;;;;;;;6.60;3.45;;;33.30;36.30;;;;;;5070608;28;20224;-58
2021/05/27 08:37:44;;;;;;;4.53;1.60;;;33.90;35.30;;;;;;5070249;28;20205;-56
2021/05/27 08:40:11;;;;;;;3.78;1.00;;;34.00;35.30;;;;;;5071985;28;20209;-58
2021/05/27 08:42:38;;;;;;;3.00;1.60;;;33.00;36.10;;;;;;5073801;28;20237;-56
2021/05/27 08:45:08;;;;;;;3.70;1.90;;;31.70;37.10;;;;;;5073977;28;20205;-58
2021/05/27 08:47:34;;;;;;;4.35;1.40;;;30.40;38.40;;;;;;5073984;28;20213;-56
2021/05/27 08:50:02;;;;;;;1.67;0.90;;;28.90;40.30;;;;;;5074281;28;20205;-56
2021/05/27 08:52:28;;;;;;;2.42;0.80;;;27.30;42.00;;;;;;5073915;28;20225;-56
2021/05/27 08:54:56;;;;;;;2.88;1.00;;;26.00;43.90;;;;;;5074259;28;20229;-56
2021/05/27 08:57:22;;;;;;;2.70;1.17;;;25.30;45.00;;;;;;5073932;28;20205;-57
2021/05/27 08:59:49;;;;;;;2.45;1.60;;;24.90;46.50;;;;;;5074215;28;20361;-56
2021/05/27 09:02:16;;;;;;;3.58;1.67;;;24.60;46.90;;;;;;5074269;28;20732;-56
2021/05/27 09:04:42;;;;;;;1.90;1.15;;;24.40;47.00;;;;;;5074018;28;20221;-56
2021/05/27 09:07:11;;;;;;;1.63;0.80;;;24.20;47.20;;;;;;5074357;28;20679;-56
2021/05/27 09:09:55;;;;;;;2.05;1.00;;;24.00;47.40;;;;;;5073798;28;20204;-56
2021/05/27 09:12:28;;;;;;;1.33;0.70;;;23.90;48.20;;;;;;5073846;28;20229;-56
2021/05/27 09:14:55;;;;;;;3.20;0.88;;;23.70;48.90;;;;;;5073525;28;20213;-56
2021/05/27 09:17:22;;;;;;;4.65;1.10;;;23.30;49.70;;;;;;5073563;28;20213;-56
2021/05/27 09:20:13;;;;;;;2.03;0.98;;;22.90;50.00;;;;;;5073334;28;20216;-55
2021/05/27 09:22:40;;;;;;;5.68;1.08;;;22.40;49.70;;;;;;5073648;28;20229;-55
2021/05/27 09:25:07;;;;;;;2.25;0.90;;;22.00;50.40;;;;;;5073386;28;20201;-56
2021/05/27 09:27:43;;;;;;;2.45;0.90;;;21.70;52.10;;;;;;5073630;28;20216;-56
2021/05/27 09:30:12;;;;;;;2.13;0.88;;;21.70;52.90;;;;;;5073218;28;20219;-56
2021/05/27 09:32:38;;;;;;;6.18;1.17;;;21.70;52.30;;;;;;5073593;28;20311;-56
2021/05/27 09:35:10;;;;;;;2.03;1.05;;;21.80;52.70;;;;;;5073091;28;20228;-55
2021/05/27 09:37:36;;;;;;;2.95;1.38;;;21.70;52.10;;;;;;5073208;28;20209;-56
2021/05/27 09:40:06;;;;;;;1.45;1.00;;;21.80;52.70;;;;;;5073105;28;20224;-56
2021/05/27 09:42:48;;;;;;;1.65;1.10;;;21.80;52.20;;;;;;5073041;28;20237;-56
2021/05/27 09:45:17;;;;;;;2.97;1.20;;;21.50;53.10;;;;;;5072790;28;20278;-56
2021/05/27 09:47:43;;;;;;;2.15;1.00;;;21.60;53.80;;;;;;5072834;28;20553;-55
2021/05/27 09:50:11;;;;;;;2.35;0.98;;;21.70;53.80;;;;;;5072978;28;20213;-56
2021/05/27 09:52:39;;;;;;;1.90;0.90;;;22.10;53.40;;;;;;5072088;28;20228;-56
2021/05/27 09:55:09;;;;;;;3.97;0.98;;;22.50;52.10;;;;;;5072572;28;20300;-56
2021/05/27 09:57:36;;;;;;;1.85;1.17;;;22.60;51.90;;;;;;5072758;28;20691;-56
2021/05/27 10:00:05;;;;;;;3.45;2.45;;;22.30;53.10;;;;;;5073119;28;20212;-56
2021/05/27 10:02:35;;;;;;;6.05;2.40;;;22.30;53.10;;;;;;5073017;28;20613;-56
2021/05/27 10:05:09;;;;;;;2.47;1.35;;;22.20;52.60;;;;;;5073111;28;20205;-56
2021/05/27 10:07:38;;;;;;;4.25;1.30;;;22.10;52.80;;;;;;5073322;28;20223;-56
2021/05/27 10:10:07;;;;;;;3.92;1.40;;;21.90;54.50;;;;;;5072461;28;20232;-56
2021/05/27 10:12:39;;;;;;;2.30;1.27;;;21.70;54.00;;;;;;5072700;28;20232;-56
2021/05/27 10:15:07;;;;;;;3.50;1.60;;;21.60;54.30;;;;;;5072071;28;20619;-56
2021/05/27 10:17:36;;;;;;;6.95;4.32;;;21.40;55.80;;;;;;5072346;28;20204;-56
2021/05/27 10:20:06;;;;;;;3.80;1.70;;;21.20;55.30;;;;;;5072507;28;20205;-56
2021/05/27 10:22:34;;;;;;;3.72;1.30;;;21.00;56.20;;;;;;5072009;28;20263;-56
2021/05/27 10:25:01;;;;;;;2.25;1.23;;;20.60;57.40;;;;;;5071818;28;20236;-56
2021/05/27 10:27:27;;;;;;;3.58;1.83;;;20.20;58.20;;;;;;5072501;28;20230;-56
2021/05/27 10:29:53;;;;;;;1.85;1.30;;;20.00;59.30;;;;;;5072086;28;20236;-56
2021/05/27 10:32:22;;;;;;;4.38;2.00;;;19.80;59.50;;;;;;5072073;28;20598;-56
2021/05/27 10:34:52;;;;;;;3.17;1.60;;;19.80;60.30;;;;;;5071950;28;20225;-56
2021/05/27 10:37:45;;;;;;;4.57;1.38;;;19.80;60.70;;;;;;5064435;28;20205;-55
2021/05/27 10:40:39;;;;;;;2.47;1.70;;;19.70;60.20;;;;;;5044471;28;20275;-59
2021/05/27 10:43:14;;;;;;;4.68;2.05;;;19.60;59.50;;;;;;5051702;28;20229;-56
2021/05/27 10:46:03;;;;;;;3.77;1.67;;;19.60;59.90;;;;;;5051638;28;20307;-57
2021/05/27 10:48:31;;;;;;;3.20;1.58;;;19.50;60.40;;;;;;5082836;28;20347;-58
2021/05/27 10:51:10;;;;;;;3.97;1.80;;;19.70;60.80;;;;;;5092206;28;20259;-61
2021/05/27 10:53:50;;;;;;;3.00;1.58;;;20.00;60.50;;;;;;5091630;28;20601;-61
2021/05/27 10:56:19;;;;;;;2.45;1.20;;;20.60;59.60;;;;;;5091575;28;20311;-60
2021/05/27 10:59:02;;;;;;;3.67;1.42;;;21.30;59.20;;;;;;5077910;28;20220;-58
2021/05/27 11:01:50;;;;;;;2.45;1.10;;;22.00;58.00;;;;;;5071302;28;20565;-59
2021/05/27 11:04:23;;;;;;;3.88;1.58;;;22.30;57.10;;;;;;5051259;28;20209;-59
2021/05/27 11:07:10;;;;;;;1.35;1.10;;;22.70;55.40;;;;;;5051375;28;20197;-59
2021/05/27 11:09:37;;;;;;;2.28;1.20;;;23.10;53.90;;;;;;5051173;28;20236;-59
2021/05/27 11:12:24;;;;;;;3.28;1.40;;;23.40;54.00;;;;;;5051399;28;20233;-57
2021/05/27 11:15:18;;;;;;;4.82;1.83;;;23.50;53.20;;;;;;5050739;28;20225;-57
2021/05/27 11:18:04;;;;;;;1.73;1.15;;;23.50;53.40;;;;;;5015067;28;20208;-57
2021/05/27 11:20:31;;;;;;;2.10;1.08;;;23.50;53.70;;;;;;5051059;28;20228;-57
2021/05/27 11:23:11;;;;;;;1.45;1.10;;;23.70;53.90;;;;;;5051092;28;20383;-57
2021/05/27 11:25:38;;;;;;;3.38;1.33;;;23.90;52.70;;;;;;5051274;28;20205;-57
2021/05/27 11:28:25;;;;;;;2.42;1.00;;;23.90;52.00;;;;;;5050618;28;20647;-57
2021/05/27 11:30:56;;;;;;;1.63;0.90;;;23.40;52.90;;;;;;5051065;28;20731;-57
2021/05/27 11:33:32;;;;;;;2.63;1.20;;;23.20;53.30;;;;;;5050824;28;20231;-57
2021/05/27 11:36:00;;;;;;;3.15;1.35;;;23.10;54.80;;;;;;5050510;28;20224;-57
2021/05/27 11:38:29;;;;;;;4.75;1.30;;;23.10;54.00;;;;;;5050781;28;20206;-57
2021/05/27 11:40:57;;;;;;;3.47;1.30;;;23.00;54.10;;;;;;5051095;28;20209;-57
2021/05/27 11:43:29;;;;;;;1.38;0.90;;;22.70;55.20;;;;;;5051037;28;20233;-57
2021/05/27 11:45:57;;;;;;;2.50;1.02;;;22.20;54.70;;;;;;5050732;28;20708;-57
2021/05/27 11:48:26;;;;;;;2.13;1.00;;;22.10;54.90;;;;;;5051089;28;20209;-58
2021/05/27 11:51:00;;;;;;;4.03;2.80;;;22.10;54.90;;;;;;5050754;28;20206;-58
2021/05/27 11:53:38;;;;;;;2.67;1.20;;;22.30;54.80;;;;;;5050144;28;20226;-57
2021/05/27 11:56:04;;;;;;;1.92;1.00;;;22.50;54.90;;;;;;5050592;28;20763;-58
2021/05/27 11:58:35;;;;;;;2.17;1.20;;;22.40;54.90;;;;;;5050112;28;20575;-60
2021/05/27 12:01:14;;;;;;;3.47;2.58;;;22.40;56.10;;;;;;5050576;28;20221;-60
2021/05/27 12:03:57;;;;;;;2.67;1.08;;;22.40;54.90;;;;;;5050046;28;20233;-60
2021/05/27 12:06:23;;;;;;;4.15;1.10;;;22.50;54.30;;;;;;5050377;28;20208;-62
2021/05/27 12:08:50;;;;;;;4.50;1.15;;;22.80;52.60;;;;;;5050221;28;20202;-62
2021/05/27 12:11:27;;;;;;;4.53;1.45;;;22.90;53.00;;;;;;5050368;28;20308;-62
2021/05/27 12:13:59;;;;;;;2.67;1.10;;;23.00;52.90;;;;;;5050591;28;20200;-60
2021/05/27 12:16:30;;;;;;;2.67;1.25;;;23.10;52.50;;;;;;5054201;28;20225;-59
2021/05/27 12:19:00;;;;;;;4.07;0.88;;;23.20;53.10;;;;;;5054819;28;20205;-59
2021/05/27 12:21:26;;;;;;;1.88;0.90;;;23.40;54.10;;;;;;5053894;28;20209;-59
2021/05/27 12:23:53;;;;;;;4.18;1.10;;;23.60;53.00;;;;;;5054469;28;20213;-59
2021/05/27 12:26:20;;;;;;;2.30;1.00;;;23.80;52.20;;;;;;5054479;28;20217;-61
2021/05/27 12:28:46;;;;;;;1.65;0.90;;;24.00;51.90;;;;;;5054304;28;20293;-61
2021/05/27 12:31:12;;;;;;;4.38;1.17;;;24.00;52.10;;;;;;5054205;28;20231;-60
2021/05/27 12:33:39;;;;;;;2.17;1.02;;;23.80;51.90;;;;;;5054580;28;20232;-59
2021/05/27 12:36:07;;;;;;;2.67;1.42;;;23.70;52.20;;;;;;5073890;28;20220;-58
2021/05/27 12:38:34;;;;;;;2.38;1.13;;;23.50;52.30;;;;;;5074212;28;20204;-59
2021/05/27 12:41:04;;;;;;;1.85;1.00;;;23.50;52.50;;;;;;5074086;28;20209;-59
2021/05/27 12:43:34;;;;;;;3.30;1.02;;;23.50;52.30;;;;;;5074059;28;20233;-59
2021/05/27 12:46:01;;;;;;;3.00;1.33;;;23.60;52.60;;;;;;5074629;28;20203;-59
2021/05/27 12:48:28;;;;;;;3.95;1.30;;;23.60;52.80;;;;;;5074192;28;20208;-59
2021/05/27 12:51:01;;;;;;;1.38;1.17;;;23.40;53.00;;;;;;5074290;28;20205;-59
2021/05/27 12:53:31;;;;;;;1.73;0.90;;;23.20;54.00;;;;;;5073839;28;20311;-59
2021/05/27 12:56:10;;;;;;;2.78;1.10;;;22.80;53.60;;;;;;5073835;28;20251;-60
2021/05/27 12:58:38;;;;;;;3.17;1.00;;;22.60;53.70;;;;;;5073678;28;20220;-60
2021/05/27 13:01:05;;;;;;;2.38;1.13;;;22.40;54.10;;;;;;5073332;28;20209;-59
2021/05/27 13:03:43;;;;;;;2.97;1.00;;;22.00;55.10;;;;;;5073275;28;20290;-60